AirNav   Air Wisconsin Up To $57,000 Bonus
 
 1422 users online  

44FD Hard Rock Heliport
Hollywood, Florida, USA

GOING TO HOLLYWOOD?


FAA INFORMATION EFFECTIVE 07 NOVEMBER 2019

Location

FAA Identifier: 44FD
Lat/Long: 26-03-02.6900N 080-12-39.2000W
26-03.044833N 080-12.653333W
26.0507472,-80.2108889
(estimated)
Elevation: 125 ft. / 38 m (estimated)
From city: 5 miles NW of HOLLYWOOD, FL
Time zone: UTC -5 (UTC -4 during Daylight Saving Time)
Zip code: 33314

Heliport Operations

Heliport use: Private use. Permission required prior to landing
Activation date: 12/2015
Control tower: no
ARTCC: MIAMI CENTER
FSS: MIAMI FLIGHT SERVICE STATION
Attendance: IREG
Wind indicator: yes
Segmented circle: yes

Heliport Communications

WX ASOS at HWO (3 nm SW): PHONE 954-983-5904
WX ASOS at FLL (4 nm E): PHONE 954-359-7857
WX ASOS at FXE (9 nm N): PHONE 954-772-2537
WX ASOS at OPF (9 nm SW): 125.9 (305-681-4063)
WX ASOS at PMP (13 nm NE): PHONE 954-783-3720
WX ASOS at MIA (16 nm S): PHONE 305-870-0235

Nearby radio navigation aids

VOR radial/distance  VOR name  Freq  Var
FLLr246/2.8FORT LAUDERDALE VOR/DME114.4006W
DHPr030/16.8DOLPHIN VORTAC113.9004W
VKZr354/18.2VIRGINIA KEY VOR/DME117.1004W
PBIr193/38.3PALM BEACH VORTAC115.7003W

Heliport Services

Runway Information

Helipad H1

Dimensions: 50 x 50 ft. / 15 x 15 m
Surface: ROOF/TOP
Weight bearing capacity: 
Single wheel: 12.5
Traffic pattern: leftleft

Heliport Ownership and Management from official FAA records

Ownership: Privately-owned
Owner: SEMINOLE TRIBE OF FLORIDA
1 SEMINOLE WAY
HOLLYWOOD, FL 33024
Phone 863-983-7677
Manager: PEDRO RODRIQUEZ
35201 EAGLES LANDING
CLEWISTON, FL 33440
Phone 863-983-7677

Additional Remarks

HELI IS LCTD ON THE TOP FLOOR OF A PARKING GARAGE.
FOR CD CTC MIAMI APCH AT 305-869-5432.

Instrument Procedures

There are no published instrument procedures at 44FD.

Some nearby airports with instrument procedures:

KHWO - North Perry Airport (3 nm SW)
KFLL - Fort Lauderdale/Hollywood International Airport (4 nm E)
KFXE - Fort Lauderdale Executive Airport (9 nm N)
KOPF - Miami-Opa Locka Executive Airport (9 nm SW)
KPMP - Pompano Beach Airpark (13 nm NE)
KMIA - Miami International Airport (16 nm S)
 
Loc | Ops | Rwys | IFR | FBO | Links
Com | Nav | Svcs | Stats | Notes
Aerial photo
No photo
 
Airport distance calculator
Flying to Hard Rock Heliport? Find the distance to fly.

From to 44FD

Sunrise and sunset
Times for 12-Nov-2019
 Local
(UTC-5)
 Zulu
(UTC)
Morning civil twilight06:1411:14
Sunrise06:3811:38
Sunset17:3222:32
Evening civil twilight17:5622:56

Current date and time
Zulu (UTC)  12-Nov-2019 20:44:50
Local (UTC-5)  12-Nov-2019 15:44:50
 
METAR
KHWO 
3nm S 
121953Z VRB03KT 10SM FEW003 BKN050 BKN070 30/18 A2990 RMK AO2 SLP125 T03000178
KFLL 
3nm E 
121953Z 14012KT 10SM SCT050 BKN250 28/20 A2988 RMK AO2 SLP118 T02780200
KOPF 
9nm SW 
121953Z 28007KT 10SM CLR 30/16 A2989 RMK AO2 SLP123 T03000161
KFXE 
9nm N 
121953Z 00000KT 10SM SCT030 29/16 A2988 RMK AO2 SLP122 T02890161
KPMP 
13nm NE 
121953Z 16010KT 10SM SCT055 28/20 A2990 RMK AO2 SLP124 T02780200 $
KMIA 
17nm S 
121953Z 31004KT 10SM SCT060 BKN250 29/15 A2989 RMK AO2 SLP122 T02940150
TAF
KFLL 
3nm E 
121750Z 1218/1324 27008KT P6SM SCT040 SCT060 SCT250 FM122200 21005KT P6SM FEW050 SCT110 FM130200 VRB04KT P6SM FEW100 FM130800 33006KT P6SM FEW035 SCT100 FM131600 02012KT P6SM VCSH SCT020 BKN045
KOPF 
9nm SW 
121750Z 1218/1318 25007KT P6SM SCT050 BKN060 FM122200 20006KT P6SM FEW050 SCT110 FM130200 29006KT P6SM FEW100 FM130900 33006KT P6SM FEW030 SCT100
KFXE 
9nm N 
121750Z 1218/1318 23005KT P6SM SCT045 SCT060 FM122300 20006KT P6SM FEW050 SCT110 FM130300 VRB03KT P6SM FEW100 FM131000 33006KT P6SM FEW035 SCT100
KMIA 
17nm S 
121750Z 1218/1324 VRB04KT P6SM SCT040 BKN250 FM122200 20005KT P6SM SCT040 SCT090 FM130100 VRB03KT P6SM FEW040 FM131200 35006KT P6SM FEW030 SCT100 FM131700 04010KT P6SM SCT035 BKN045
NOTAMs
Click for the latest NOTAMs
NOTAMs are issued by the DoD/FAA and will open in a separate window not controlled by AirNav.

 

 
 

Would you like to see your business listed on this page?

 If your business provides an interesting product or service to pilots, flight crews, aircraft, or users of the Hard Rock Heliport, you should consider listing it here.  To start the listing process, click on the button below
 
Add a business
 

Other Pages about Hard Rock Heliport

Update a link
 
Copyright © AirNav, LLC. All rights reserved. Privacy Policy  Contact